createdAt,value
2022-12-13T00:01:52.005Z,98148.00
2022-12-13T00:04:23.055Z,98145.00
2022-12-13T00:06:53.860Z,98141.56
2022-12-13T00:09:22.780Z,98136.75
2022-12-13T00:11:50.848Z,98133.28
2022-12-13T00:14:19.207Z,98127.81
2022-12-13T00:16:50.887Z,98133.38
2022-12-13T00:19:19.472Z,98137.84
2022-12-13T00:21:49.294Z,98134.69
2022-12-13T00:24:19.372Z,98131.97
2022-12-13T00:26:47.260Z,98123.81
2022-12-13T00:29:15.151Z,98128.47
2022-12-13T00:34:31.167Z,98126.69
2022-12-13T00:37:00.553Z,98124.19
2022-12-13T00:39:29.123Z,98133.47
2022-12-13T00:42:00.269Z,98127.41
2022-12-13T00:44:28.429Z,98127.88
2022-12-13T00:46:56.664Z,98129.53
2022-12-13T00:49:24.964Z,98128.53
2022-12-13T00:51:52.941Z,98124.38
2022-12-13T00:54:24.762Z,98114.34
2022-12-13T00:56:52.754Z,98112.31
2022-12-13T00:59:20.830Z,98106.66
2022-12-13T01:01:49.063Z,98100.69
2022-12-13T01:04:17.339Z,98099.69
2022-12-13T01:06:49.979Z,98107.59
2022-12-13T01:09:20.215Z,98096.72
2022-12-13T01:11:50.133Z,98096.25
2022-12-13T01:14:19.306Z,98096.09
2022-12-13T01:16:47.433Z,98103.47
2022-12-13T01:19:16.595Z,98097.84
2022-12-13T01:21:44.714Z,98099.94
2022-12-13T01:24:12.757Z,98097.69
2022-12-13T01:26:40.791Z,98102.72
2022-12-13T01:29:11.649Z,98101.28
2022-12-13T01:31:41.732Z,98108.13
2022-12-13T01:34:11.532Z,98103.06
2022-12-13T01:36:40.603Z,98105.31
2022-12-13T01:39:15.350Z,98098.44
2022-12-13T01:41:45.363Z,98094.56
2022-12-13T01:44:50.545Z,98095.53
2022-12-13T01:47:25.887Z,98095.41
2022-12-13T01:50:21.436Z,98103.03
2022-12-13T01:52:50.602Z,98093.63
2022-12-13T01:55:21.417Z,98093.72
2022-12-13T01:57:52.423Z,98095.03
2022-12-13T02:00:20.665Z,98086.41
2022-12-13T02:02:50.606Z,98093.41
2022-12-13T02:05:26.499Z,98080.19
2022-12-13T02:07:59.534Z,98081.94
2022-12-13T02:10:28.899Z,98085.44
2022-12-13T02:12:58.843Z,98076.56
2022-12-13T02:15:34.097Z,98078.94
2022-12-13T02:22:13.565Z,98073.53
2022-12-13T02:25:06.572Z,98078.81
2022-12-13T02:27:52.133Z,98067.38
2022-12-13T02:30:36.824Z,98065.69
2022-12-13T02:33:29.678Z,98064.41
2022-12-13T02:36:09.410Z,98061.19
2022-12-13T02:38:45.900Z,98075.16
2022-12-13T02:41:18.511Z,98063.81
2022-12-13T02:43:50.782Z,98059.00
2022-12-13T02:46:23.693Z,98064.84
2022-12-13T02:48:55.942Z,98065.91
2022-12-13T02:51:28.059Z,98061.59
2022-12-13T02:53:57.242Z,98061.63
2022-12-13T02:56:25.235Z,98063.22
2022-12-13T02:58:56.974Z,98062.28
2022-12-13T03:01:43.097Z,98063.03
2022-12-13T03:04:22.183Z,98057.19
2022-12-13T03:07:01.044Z,98062.66
2022-12-13T03:09:48.014Z,98049.91
2022-12-13T03:12:43.180Z,98049.47
2022-12-13T03:15:19.333Z,98047.41
2022-12-13T03:17:53.130Z,98047.50
2022-12-13T03:20:25.806Z,98040.78
2022-12-13T03:22:54.070Z,98034.63
2022-12-13T03:25:31.356Z,98035.66
2022-12-13T03:28:00.995Z,98032.09
2022-12-13T03:30:30.886Z,98037.66
2022-12-13T03:33:00.400Z,98037.72
2022-12-13T03:35:33.914Z,98034.50
2022-12-13T03:38:04.143Z,98029.78
2022-12-13T03:40:33.548Z,98031.44
2022-12-13T03:43:02.001Z,98032.72
2022-12-13T03:45:29.940Z,98039.91
2022-12-13T03:47:58.047Z,98031.47
2022-12-13T03:50:27.667Z,98033.66
2022-12-13T03:53:00.043Z,98025.97
2022-12-13T03:55:28.417Z,98017.38
2022-12-13T03:57:56.670Z,98021.25
2022-12-13T04:00:24.693Z,98024.44
2022-12-13T04:02:52.868Z,98012.16
2022-12-13T04:05:20.782Z,98013.16
2022-12-13T04:07:50.221Z,98015.81
2022-12-13T04:10:25.316Z,98018.50
2022-12-13T04:13:12.766Z,98006.13
2022-12-13T04:15:48.898Z,98025.00
2022-12-13T04:18:17.404Z,98018.50
2022-12-13T04:20:45.824Z,98010.09
2022-12-13T04:23:16.791Z,98010.03
2022-12-13T04:25:46.012Z,98006.69
2022-12-13T04:28:22.777Z,98004.50
2022-12-13T04:30:53.072Z,98019.75
2022-12-13T04:33:22.647Z,98011.56
2022-12-13T04:35:51.650Z,98012.59
2022-12-13T04:38:20.950Z,98013.50
2022-12-13T04:40:48.826Z,98013.16
2022-12-13T04:43:17.081Z,98018.75
2022-12-13T04:45:45.167Z,98012.44
2022-12-13T04:48:30.743Z,98015.38
2022-12-13T04:51:01.154Z,98009.44
2022-12-13T04:53:31.481Z,98017.88
2022-12-13T04:56:00.067Z,98010.84
2022-12-13T04:58:28.919Z,98012.50
2022-12-13T05:00:57.393Z,98009.84
2022-12-13T05:03:25.436Z,98011.34
2022-12-13T05:05:53.348Z,97995.88
2022-12-13T05:08:21.237Z,98006.09
2022-12-13T05:10:50.568Z,98006.09
2022-12-13T05:13:20.872Z,98007.91
2022-12-13T05:15:56.135Z,98002.34
2022-12-13T05:18:24.378Z,98006.81
2022-12-13T05:20:53.084Z,98008.66
2022-12-13T05:23:23.065Z,98011.66
2022-12-13T05:25:52.886Z,98007.09
2022-12-13T05:28:27.559Z,98009.44
2022-12-13T05:30:57.986Z,97999.94
2022-12-13T05:33:28.076Z,98004.47
2022-12-13T05:35:59.945Z,98001.09
2022-12-13T05:38:30.620Z,98005.41
2022-12-13T05:41:02.836Z,97994.91
2022-12-13T05:43:43.237Z,98003.75
2022-12-13T05:46:17.088Z,97992.38
2022-12-13T05:48:46.376Z,97995.13
2022-12-13T05:51:17.858Z,97996.63
2022-12-13T05:53:51.636Z,97999.13
2022-12-13T05:56:23.189Z,97999.19
2022-12-13T05:58:54.403Z,97999.13
2022-12-13T06:01:23.629Z,97993.28
2022-12-13T06:03:52.665Z,97985.66
2022-12-13T06:06:21.212Z,97991.47
2022-12-13T06:08:49.317Z,97987.97
2022-12-13T06:11:31.723Z,97987.97
2022-12-13T06:14:01.707Z,97996.56
2022-12-13T06:16:29.865Z,97986.44
2022-12-13T06:19:04.384Z,97987.47
2022-12-13T06:21:41.716Z,97995.00
2022-12-13T06:24:16.554Z,97998.47
2022-12-13T06:26:45.559Z,97991.63
2022-12-13T06:29:23.075Z,98001.31
2022-12-13T06:32:01.030Z,97990.63
2022-12-13T06:34:29.927Z,97991.66
2022-12-13T06:36:57.985Z,97984.56
2022-12-13T06:39:32.267Z,97990.97
2022-12-13T06:42:02.598Z,97993.19
2022-12-13T06:44:31.989Z,97995.13
2022-12-13T06:47:00.990Z,97988.22
2022-12-13T06:49:41.936Z,97984.91
2022-12-13T06:52:11.873Z,97983.03
2022-12-13T06:54:39.885Z,97994.81
2022-12-13T06:57:14.404Z,98003.28
2022-12-13T06:59:43.953Z,98008.38
2022-12-13T07:02:24.145Z,98008.06
2022-12-13T07:04:54.199Z,98008.59
2022-12-13T07:07:25.664Z,98010.91
2022-12-13T07:09:54.178Z,98010.75
2022-12-13T07:12:22.547Z,98016.72
2022-12-13T07:14:52.069Z,98016.41
2022-12-13T07:17:32.407Z,98021.78
2022-12-13T07:20:09.286Z,98016.09
2022-12-13T07:22:44.946Z,98019.97
2022-12-13T07:25:27.596Z,98018.88
2022-12-13T07:28:02.243Z,98018.47
2022-12-13T07:30:34.549Z,98011.56
2022-12-13T07:33:09.830Z,98019.78
2022-12-13T07:35:40.788Z,98014.94
2022-12-13T07:38:11.056Z,98012.56
2022-12-13T07:40:41.433Z,98028.13
2022-12-13T07:43:12.004Z,98018.91
2022-12-13T07:45:41.652Z,98024.28
2022-12-13T07:48:09.801Z,98025.50
2022-12-13T07:50:38.125Z,98033.84
2022-12-13T07:53:07.614Z,98039.34
2022-12-13T07:55:36.769Z,98051.72
2022-12-13T07:58:06.724Z,98049.19
2022-12-13T08:00:36.598Z,98048.81
2022-12-13T08:03:06.633Z,98050.66
2022-12-13T08:05:38.554Z,98048.69
2022-12-13T08:08:09.444Z,98042.06
2022-12-13T08:10:37.398Z,98043.06
2022-12-13T08:13:05.590Z,98049.16
2022-12-13T08:15:33.901Z,98044.41
2022-12-13T08:18:05.377Z,98055.66
2022-12-13T08:20:33.279Z,98057.94
2022-12-13T08:23:02.061Z,98059.75
2022-12-13T08:25:31.992Z,98051.13
2022-12-13T08:28:01.692Z,98055.31
2022-12-13T08:30:31.907Z,98052.69
2022-12-13T08:33:04.872Z,98049.41
2022-12-13T08:35:35.367Z,98045.06
2022-12-13T08:38:03.821Z,98047.34
2022-12-13T08:40:31.817Z,98037.75
2022-12-13T08:43:00.286Z,98039.59
2022-12-13T08:45:28.865Z,98044.75
2022-12-13T08:48:00.553Z,98044.44
2022-12-13T08:50:29.183Z,98048.25
2022-12-13T08:52:59.141Z,98060.28
2022-12-13T08:55:32.305Z,98053.16
2022-12-13T08:58:07.174Z,98047.41
2022-12-13T09:00:36.567Z,98048.91
2022-12-13T09:03:09.853Z,98044.13
2022-12-13T09:05:42.484Z,98041.66
2022-12-13T09:08:24.804Z,98046.78
2022-12-13T09:11:11.304Z,98044.56
2022-12-13T09:13:51.225Z,98045.50
2022-12-13T09:16:24.226Z,98044.00
2022-12-13T09:18:54.895Z,98041.13
2022-12-13T09:21:31.688Z,98039.47
2022-12-13T09:24:03.857Z,98033.84
2022-12-13T09:26:38.425Z,98029.44
2022-12-13T09:29:10.732Z,98043.00
2022-12-13T09:31:42.967Z,98041.53
2022-12-13T09:34:12.403Z,98036.97
2022-12-13T09:36:42.681Z,98038.53
2022-12-13T09:39:13.356Z,98032.91
2022-12-13T09:41:45.249Z,98035.97
2022-12-13T09:44:30.828Z,98037.91
2022-12-13T09:47:03.324Z,98046.44
2022-12-13T09:49:35.745Z,98047.75
2022-12-13T09:52:10.916Z,98047.16
2022-12-13T09:54:48.209Z,98041.53
2022-12-13T09:57:31.282Z,98032.03
2022-12-13T10:00:03.417Z,98030.31
2022-12-13T10:02:44.964Z,98028.28
2022-12-13T10:05:34.201Z,98027.88
2022-12-13T10:08:09.605Z,98039.31
2022-12-13T10:10:39.493Z,98032.25
2022-12-13T10:13:16.252Z,98026.19
2022-12-13T10:16:13.441Z,98019.03
2022-12-13T10:18:45.005Z,98009.53
2022-12-13T10:21:16.609Z,98016.09
2022-12-13T10:24:23.254Z,98012.50
2022-12-13T10:26:40.844Z,98008.72
2022-12-13T10:29:19.985Z,98001.56
2022-12-13T10:32:05.692Z,98001.38
2022-12-13T10:34:37.688Z,98000.16
2022-12-13T10:41:30.096Z,97988.81
2022-12-13T10:44:16.104Z,97985.97
2022-12-13T10:46:50.195Z,97982.97
2022-12-13T10:49:21.462Z,97975.13
2022-12-13T10:51:51.969Z,97974.56
2022-12-13T10:54:28.731Z,97980.47
2022-12-13T10:57:07.363Z,97968.53
2022-12-13T10:59:40.710Z,97978.88
2022-12-13T11:02:32.609Z,97976.75
2022-12-13T11:05:23.600Z,97975.59
2022-12-13T11:07:51.847Z,97973.53
2022-12-13T11:10:27.600Z,97984.56
2022-12-13T11:13:03.787Z,97983.16
2022-12-13T11:15:34.915Z,97968.91
2022-12-13T11:18:06.478Z,97970.50
2022-12-13T11:20:36.941Z,97960.84
2022-12-13T11:23:07.385Z,97953.69
2022-12-13T11:25:41.836Z,97961.91
2022-12-13T11:28:38.064Z,97955.13
2022-12-13T11:31:16.249Z,97946.34
2022-12-13T11:33:55.138Z,97948.41
2022-12-13T11:36:35.383Z,97946.00
2022-12-13T11:39:15.700Z,97937.06
2022-12-13T11:41:53.295Z,97933.97
2022-12-13T11:44:28.190Z,97935.22
2022-12-13T11:47:00.574Z,97939.06
2022-12-13T11:49:39.614Z,97931.88
2022-12-13T11:52:17.869Z,97940.38
2022-12-13T11:54:54.189Z,97933.53
2022-12-13T11:57:34.460Z,97941.53
2022-12-13T12:00:13.265Z,97932.38
2022-12-13T12:03:36.804Z,97930.78
2022-12-13T12:06:12.662Z,97932.16
2022-12-13T12:09:02.114Z,97929.06
2022-12-13T12:11:36.863Z,97922.00
2022-12-13T12:14:12.508Z,97930.66
2022-12-13T12:16:44.902Z,97922.97
2022-12-13T12:19:16.949Z,97922.78
2022-12-13T12:22:14.863Z,97920.06
2022-12-13T12:25:15.165Z,97914.06
2022-12-13T12:28:06.563Z,97919.53
2022-12-13T12:30:48.554Z,97922.09
2022-12-13T12:33:30.330Z,97916.03
2022-12-13T12:36:26.589Z,97913.88
2022-12-13T12:39:33.160Z,97910.63
2022-12-13T12:42:44.595Z,97902.28
2022-12-13T12:48:58.459Z,97898.72
2022-12-13T12:51:48.471Z,97902.09
2022-12-13T12:54:33.944Z,97901.69
2022-12-13T12:57:11.008Z,97895.94
2022-12-13T12:59:47.970Z,97899.81
2022-12-13T13:02:22.998Z,97903.94
2022-12-13T13:05:00.272Z,97898.41
2022-12-13T13:07:40.118Z,97891.72
2022-12-13T13:10:16.290Z,97888.84
2022-12-13T13:13:01.851Z,97881.47
2022-12-13T13:16:04.554Z,97880.81
2022-12-13T13:18:50.975Z,97878.09
2022-12-13T13:21:47.164Z,97880.94
2022-12-13T13:24:27.901Z,97870.47
2022-12-13T13:27:00.775Z,97875.63
2022-12-13T13:29:37.780Z,97869.09
2022-12-13T13:32:32.202Z,97865.63
2022-12-13T13:35:53.474Z,97860.88
2022-12-13T13:38:55.304Z,97856.75
2022-12-13T13:41:58.044Z,97861.44
2022-12-13T13:44:54.543Z,97869.00
2022-12-13T13:47:41.223Z,97873.03
2022-12-13T13:50:45.166Z,97866.59
2022-12-13T13:54:12.992Z,97874.19
2022-12-13T13:57:33.174Z,97875.66
2022-12-13T14:00:46.353Z,97861.78
2022-12-13T14:04:04.776Z,97866.97
2022-12-13T14:10:50.994Z,97867.06
2022-12-13T14:13:51.965Z,97875.09
2022-12-13T14:16:58.903Z,97876.72
2022-12-13T14:19:58.733Z,97875.56
2022-12-13T14:22:35.561Z,97880.44
2022-12-13T14:25:25.737Z,97891.63
2022-12-13T14:28:00.381Z,97882.50
2022-12-13T14:30:29.468Z,97874.13
2022-12-13T14:32:59.389Z,97872.50
2022-12-13T14:35:30.094Z,97866.38
2022-12-13T14:38:00.785Z,97864.56
2022-12-13T14:40:32.238Z,97870.47
2022-12-13T14:43:03.187Z,97867.97
2022-12-13T14:45:34.300Z,97869.38
2022-12-13T14:48:06.892Z,97871.47
2022-12-13T14:50:37.178Z,97863.13
2022-12-13T14:53:06.415Z,97862.38
2022-12-13T14:55:37.347Z,97860.13
2022-12-13T14:58:20.100Z,97862.06
2022-12-13T15:00:49.186Z,97855.59
2022-12-13T15:03:29.398Z,97858.56
2022-12-13T15:06:00.116Z,97854.34
2022-12-13T15:08:28.715Z,97849.88
2022-12-13T15:11:03.065Z,97841.03
2022-12-13T15:13:37.255Z,97837.78
2022-12-13T15:16:11.232Z,97832.72
2022-12-13T15:18:50.612Z,97835.22
2022-12-13T15:21:28.082Z,97837.22
2022-12-13T15:24:00.290Z,97825.34
2022-12-13T15:26:35.061Z,97829.72
2022-12-13T15:29:10.269Z,97826.38
2022-12-13T15:31:40.153Z,97822.75
2022-12-13T15:34:35.297Z,97820.22
2022-12-13T15:37:05.918Z,97816.88
2022-12-13T15:39:39.112Z,97815.75
2022-12-13T15:42:14.041Z,97810.03
2022-12-13T15:44:49.987Z,97806.09
2022-12-13T15:47:28.697Z,97802.13
2022-12-13T15:50:00.987Z,97797.03
2022-12-13T15:52:33.060Z,97798.44
2022-12-13T15:55:19.526Z,97794.44
2022-12-13T15:57:52.420Z,97792.69
2022-12-13T16:00:31.003Z,97790.44
2022-12-13T16:03:08.661Z,97790.44
2022-12-13T16:05:43.056Z,97792.34
2022-12-13T16:08:26.000Z,97781.00
2022-12-13T16:10:55.121Z,97788.88
2022-12-13T16:13:27.592Z,97795.72
2022-12-13T16:16:00.367Z,97783.53
2022-12-13T16:18:52.089Z,97789.97
2022-12-13T16:21:23.429Z,97781.28
2022-12-13T16:23:51.677Z,97774.78
2022-12-13T16:26:25.516Z,97771.88
2022-12-13T16:28:53.471Z,97773.06
2022-12-13T16:31:22.990Z,97772.00
2022-12-13T16:33:51.044Z,97770.50
2022-12-13T16:36:18.994Z,97765.44
2022-12-13T16:38:48.269Z,97771.34
2022-12-13T16:41:16.352Z,97763.91
2022-12-13T16:43:53.720Z,97776.22
2022-12-13T16:47:14.154Z,97772.44
2022-12-13T16:49:19.926Z,97771.22
2022-12-13T16:51:48.904Z,97770.50
2022-12-13T16:54:19.727Z,97776.69
2022-12-13T16:56:48.143Z,97779.94
2022-12-13T16:59:17.685Z,97772.56
2022-12-13T17:01:46.556Z,97777.75
2022-12-13T17:04:19.906Z,97767.38
2022-12-13T17:06:48.692Z,97760.41
2022-12-13T17:09:18.274Z,97770.09
2022-12-13T17:11:46.839Z,97770.38
2022-12-13T17:14:17.330Z,97770.63
2022-12-13T17:16:45.386Z,97773.03
2022-12-13T17:19:15.457Z,97773.53
2022-12-13T17:21:43.612Z,97777.88
2022-12-13T17:24:11.528Z,97781.53
2022-12-13T17:26:54.352Z,97776.09
2022-12-13T17:29:24.272Z,97773.56
2022-12-13T17:31:52.227Z,97772.44
2022-12-13T17:34:23.359Z,97777.72
2022-12-13T17:36:51.368Z,97774.38
2022-12-13T17:39:19.691Z,97779.00
2022-12-13T17:41:54.895Z,97771.41
2022-12-13T17:44:24.774Z,97765.28
2022-12-13T17:46:54.931Z,97764.19
2022-12-13T17:49:23.778Z,97752.47
2022-12-13T17:51:53.783Z,97753.69
2022-12-13T17:54:22.673Z,97751.59
2022-12-13T17:56:52.928Z,97750.31
2022-12-13T17:59:21.191Z,97761.75
2022-12-13T18:01:49.530Z,97754.81
2022-12-13T18:04:18.113Z,97765.50
2022-12-13T18:06:46.089Z,97765.34
2022-12-13T18:09:16.462Z,97768.03
2022-12-13T18:11:44.506Z,97761.34
2022-12-13T18:14:13.797Z,97759.72
2022-12-13T18:16:43.309Z,97754.31
2022-12-13T18:19:15.256Z,97741.53
2022-12-13T18:21:46.856Z,97737.06
2022-12-13T18:24:14.925Z,97735.97
2022-12-13T18:26:42.830Z,97732.09
2022-12-13T18:29:10.666Z,97741.50
2022-12-13T18:31:40.004Z,97735.63
2022-12-13T18:34:08.450Z,97754.41
2022-12-13T18:36:37.092Z,97753.75
2022-12-13T18:39:05.472Z,97751.72
2022-12-13T18:41:33.645Z,97747.72
2022-12-13T18:44:03.573Z,97741.78
2022-12-13T18:46:34.479Z,97746.47
2022-12-13T18:49:04.065Z,97753.69
2022-12-13T18:51:32.243Z,97755.13
2022-12-13T18:54:00.076Z,97744.34
2022-12-13T18:56:28.191Z,97744.19
2022-12-13T18:58:58.028Z,97743.94
2022-12-13T19:01:28.016Z,97737.31
2022-12-13T19:03:56.175Z,97735.53
2022-12-13T19:06:26.596Z,97723.06
2022-12-13T19:08:57.238Z,97719.78
2022-12-13T19:11:26.827Z,97705.41
2022-12-13T19:13:55.147Z,97697.78
2022-12-13T19:16:25.191Z,97689.88
2022-12-13T19:18:53.324Z,97685.69
2022-12-13T19:21:22.826Z,97678.69
2022-12-13T19:23:57.452Z,97668.22
2022-12-13T19:26:26.667Z,97659.53
2022-12-13T19:28:56.430Z,97660.28
2022-12-13T19:31:30.547Z,97668.97
2022-12-13T19:34:00.583Z,97668.34
2022-12-13T19:36:28.508Z,97669.38
2022-12-13T19:38:59.066Z,97671.53
2022-12-13T19:41:28.063Z,97653.19
2022-12-13T19:43:56.289Z,97655.66
2022-12-13T19:46:24.371Z,97656.34
2022-12-13T19:48:52.449Z,97652.19
2022-12-13T19:51:21.470Z,97664.06
2022-12-13T19:53:50.156Z,97658.09
2022-12-13T19:56:20.975Z,97656.31
2022-12-13T19:58:49.873Z,97653.94
2022-12-13T20:01:20.186Z,97659.59
2022-12-13T20:03:48.336Z,97661.84
2022-12-13T20:06:18.337Z,97663.06
2022-12-13T20:08:46.445Z,97651.91
2022-12-13T20:11:17.103Z,97649.25
2022-12-13T20:13:46.951Z,97648.25
2022-12-13T20:16:18.767Z,97642.66
2022-12-13T20:18:47.241Z,97640.22
2022-12-13T20:21:16.294Z,97635.63
2022-12-13T20:23:49.256Z,97636.25
2022-12-13T20:26:20.612Z,97623.97
2022-12-13T20:28:50.564Z,97621.66
2022-12-13T20:31:20.051Z,97622.25
2022-12-13T20:33:48.434Z,97629.19
2022-12-13T20:36:25.331Z,97631.91
2022-12-13T20:38:55.241Z,97629.13
2022-12-13T20:41:23.200Z,97630.97
2022-12-13T20:43:54.085Z,97628.19
2022-12-13T20:46:23.476Z,97630.56
2022-12-13T20:48:51.902Z,97636.69
2022-12-13T20:51:21.806Z,97627.53
2022-12-13T20:53:51.632Z,97628.53
2022-12-13T20:56:21.563Z,97609.81
2022-12-13T20:58:50.348Z,97617.06
2022-12-13T21:01:23.768Z,97603.81
2022-12-13T21:03:54.497Z,97619.75
2022-12-13T21:06:22.768Z,97613.69
2022-12-13T21:08:54.408Z,97616.38
2022-12-13T21:11:27.181Z,97619.53
2022-12-13T21:14:03.770Z,97616.25
2022-12-13T21:16:39.205Z,97615.72
2022-12-13T21:19:09.094Z,97617.47
2022-12-13T21:21:37.559Z,97624.22
2022-12-13T21:24:06.404Z,97613.50
2022-12-13T21:26:35.962Z,97612.47
2022-12-13T21:29:07.442Z,97610.28
2022-12-13T21:31:37.587Z,97607.44
2022-12-13T21:34:06.984Z,97601.03
2022-12-13T21:36:37.517Z,97602.41
2022-12-13T21:39:08.113Z,97596.28
2022-12-13T21:41:36.034Z,97587.94
2022-12-13T21:44:03.965Z,97583.16
2022-12-13T21:47:11.400Z,97585.16
2022-12-13T21:49:22.043Z,97569.47
2022-12-13T21:51:50.360Z,97574.25
2022-12-13T21:54:18.913Z,97570.06
2022-12-13T21:57:04.078Z,97565.34
2022-12-13T21:59:34.389Z,97552.38
2022-12-13T22:02:14.522Z,97562.16
2022-12-13T22:04:45.830Z,97558.47
2022-12-13T22:07:20.637Z,97554.59
2022-12-13T22:09:49.366Z,97549.31
2022-12-13T22:12:20.995Z,97531.91
2022-12-13T22:14:49.532Z,97534.81
2022-12-13T22:17:18.437Z,97536.03
2022-12-13T22:19:48.862Z,97536.97
2022-12-13T22:22:17.556Z,97529.28
2022-12-13T22:24:52.720Z,97522.81
2022-12-13T22:27:25.561Z,97517.09
2022-12-13T22:29:54.508Z,97506.75
2022-12-13T22:32:29.907Z,97516.09
2022-12-13T22:34:59.155Z,97522.53
2022-12-13T22:37:27.667Z,97523.34
2022-12-13T22:39:55.503Z,97536.06
2022-12-13T22:42:23.415Z,97519.72
2022-12-13T22:44:51.276Z,97506.50
2022-12-13T22:47:19.758Z,97506.25
2022-12-13T22:49:48.572Z,97506.44
2022-12-13T22:52:18.694Z,97499.44
2022-12-13T22:54:46.884Z,97486.47
2022-12-13T22:57:15.095Z,97485.34
2022-12-13T22:59:42.874Z,97481.19
2022-12-13T23:02:10.827Z,97473.91
2022-12-13T23:04:38.782Z,97477.84
2022-12-13T23:07:07.096Z,97483.88
2022-12-13T23:09:36.523Z,97472.88
2022-12-13T23:12:22.571Z,97479.66
2022-12-13T23:14:51.372Z,97485.78
2022-12-13T23:17:19.271Z,97486.13
2022-12-13T23:19:50.127Z,97482.31
2022-12-13T23:22:21.767Z,97488.63
2022-12-13T23:24:52.000Z,97477.72
2022-12-13T23:27:21.876Z,97481.19
2022-12-13T23:29:49.781Z,97472.50
2022-12-13T23:32:17.765Z,97463.56
2022-12-13T23:34:48.064Z,97465.06
2022-12-13T23:37:18.149Z,97469.00
2022-12-13T23:39:46.788Z,97469.81
2022-12-13T23:42:16.042Z,97471.22
2022-12-13T23:44:43.938Z,97465.88
2022-12-13T23:47:11.887Z,97462.28
2022-12-13T23:49:39.806Z,97463.91
2022-12-13T23:52:07.774Z,97464.19
2022-12-13T23:54:36.039Z,97466.34
2022-12-13T23:57:04.022Z,97467.69
2022-12-13T23:59:33.336Z,97461.00
